Time;durP1;ratioP1;P1;durP2;ratioP2;P2;SDS_P1;SDS_P2;PMS_P1;PMS_P2;Temp;Humidity;BMP_temperature;BMP_pressure;BME280_temperature;BME280_humidity;BME280_pressure;Samples;Min_cycle;Max_cycle;Signal;HPM_P1;HPM_P2
2022/07/10 00:00:53;;;;;;;5.55;4.85;;;19.20;98.40;;;19.44;100.00;101203.00;4992843;28;20056;-76
2022/07/10 00:03:20;;;;;;;4.90;4.50;;;19.20;97.90;;;19.18;100.00;101193.53;4992063;28;20050;-77
2022/07/10 00:05:49;;;;;;;6.72;5.35;;;19.20;98.10;;;19.38;100.00;101196.16;4992533;28;20034;-78
2022/07/10 00:08:16;;;;;;;5.10;4.57;;;19.20;97.90;;;19.15;100.00;101194.56;4992036;28;20045;-77
2022/07/10 00:10:43;;;;;;;6.32;5.72;;;19.20;97.80;;;19.13;100.00;101201.78;4991826;28;20034;-77
2022/07/10 00:13:10;;;;;;;6.88;5.80;;;19.10;98.00;;;19.22;100.00;101192.47;4993154;28;20126;-76
2022/07/10 00:15:37;;;;;;;7.70;6.90;;;19.10;97.90;;;19.17;100.00;101203.38;4990982;28;20042;-77
2022/07/10 00:18:04;;;;;;;7.25;6.38;;;19.00;98.40;;;19.27;100.00;101193.13;4990558;28;20467;-76
2022/07/10 00:20:32;;;;;;;7.20;5.93;;;19.10;98.50;;;19.40;100.00;101196.94;4988107;28;20046;-77
2022/07/10 00:22:59;;;;;;;6.95;6.15;;;19.10;98.10;;;19.41;100.00;101203.13;4976547;28;20046;-77
2022/07/10 00:25:28;;;;;;;6.45;5.63;;;19.10;98.10;;;19.45;100.00;101193.16;4988327;28;20463;-78
2022/07/10 00:27:55;;;;;;;6.45;5.72;;;19.20;98.40;;;19.39;100.00;101200.53;4989138;28;20054;-77
2022/07/10 00:30:22;;;;;;;8.18;5.82;;;19.20;98.40;;;19.43;100.00;101195.91;4987897;28;20066;-77
2022/07/10 00:32:49;;;;;;;6.90;5.93;;;19.20;98.30;;;19.42;100.00;101192.38;4991906;28;20043;-76
2022/07/10 00:35:17;;;;;;;6.68;6.05;;;19.20;98.20;;;19.40;100.00;101193.38;4972496;28;20042;-77
2022/07/10 00:37:44;;;;;;;9.05;5.68;;;19.10;98.10;;;19.31;100.00;101192.03;4989498;28;20623;-77
2022/07/10 00:40:12;;;;;;;10.38;6.32;;;19.20;98.20;;;19.31;100.00;101197.34;4988247;28;20419;-77
2022/07/10 00:42:39;;;;;;;6.85;5.53;;;19.20;98.00;;;19.25;100.00;101198.50;4986543;28;20105;-77
2022/07/10 00:45:06;;;;;;;7.45;6.15;;;19.10;98.00;;;19.24;100.00;101198.59;4989332;28;20518;-78
2022/07/10 00:47:33;;;;;;;6.80;5.40;;;19.10;97.70;;;19.23;100.00;101202.22;4987056;28;20057;-78
2022/07/10 00:50:00;;;;;;;6.13;5.53;;;19.00;97.70;;;19.23;100.00;101204.88;5002227;28;20046;-77
2022/07/10 00:52:28;;;;;;;8.02;4.55;;;19.00;97.60;;;19.21;100.00;101201.44;4987531;28;20050;-77
2022/07/10 00:54:55;;;;;;;8.73;5.72;;;19.00;97.50;;;19.18;100.00;101198.88;4986238;28;20419;-78
2022/07/10 00:57:23;;;;;;;5.40;4.80;;;19.00;97.60;;;19.12;100.00;101198.25;4987685;28;20046;-78
2022/07/10 00:59:50;;;;;;;6.32;4.80;;;19.00;97.50;;;19.13;100.00;101196.44;4957653;28;20515;-78
2022/07/10 01:02:17;;;;;;;4.72;4.22;;;18.90;97.30;;;19.10;100.00;101194.78;4989474;28;20126;-77
2022/07/10 01:04:44;;;;;;;6.75;4.25;;;18.90;97.50;;;19.07;100.00;101196.72;4989651;28;20046;-78
2022/07/10 01:07:15;;;;;;;6.25;4.30;;;18.90;97.50;;;19.05;100.00;101194.16;4989703;28;20047;-78
2022/07/10 01:09:43;;;;;;;4.88;4.07;;;18.90;97.50;;;18.98;100.00;101188.19;4989356;28;20049;-76
2022/07/10 01:12:12;;;;;;;4.53;3.97;;;18.80;97.40;;;19.03;100.00;101187.13;4989819;28;20494;-77
2022/07/10 01:14:40;;;;;;;5.30;3.80;;;18.80;97.20;;;18.93;100.00;101195.53;4972663;28;20839;-77
2022/07/10 01:17:09;;;;;;;5.93;3.80;;;18.80;97.40;;;18.84;100.00;101195.97;4970673;28;20047;-77
2022/07/10 01:19:36;;;;;;;5.15;4.30;;;18.70;97.30;;;18.87;100.00;101193.16;4953948;28;20055;-77
2022/07/10 01:22:03;;;;;;;5.28;3.90;;;18.70;97.50;;;18.81;100.00;101191.63;4976790;28;20789;-78
2022/07/10 01:24:31;;;;;;;4.55;3.67;;;18.70;97.30;;;18.71;100.00;101198.28;4990466;28;20080;-78
2022/07/10 01:26:58;;;;;;;5.82;3.10;;;18.70;97.50;;;18.75;100.00;101196.38;4974066;28;20042;-77
2022/07/10 01:29:26;;;;;;;4.35;3.67;;;18.60;97.50;;;18.71;100.00;101195.63;4988919;28;20531;-78
2022/07/10 01:31:53;;;;;;;5.50;3.58;;;18.60;97.50;;;18.63;100.00;101206.63;4989487;28;20054;-78
2022/07/10 01:34:23;;;;;;;5.47;3.72;;;18.60;97.50;;;18.65;100.00;101203.91;4990768;28;20126;-78
2022/07/10 01:36:50;;;;;;;5.22;3.50;;;18.50;97.60;;;18.58;100.00;101203.31;4973568;28;20050;-77
2022/07/10 01:39:17;;;;;;;5.22;3.60;;;18.50;97.70;;;18.57;100.00;101209.59;4988605;28;20049;-78
2022/07/10 01:41:44;;;;;;;4.97;3.67;;;18.50;97.50;;;18.52;100.00;101209.78;4990748;28;20049;-78
2022/07/10 01:44:11;;;;;;;9.48;4.72;;;18.40;97.60;;;18.46;100.00;101217.19;4989027;28;20042;-78
2022/07/10 01:46:47;;;;;;;5.45;3.47;;;19.10;97.90;;;18.50;100.00;101219.66;4990669;28;20046;-78
2022/07/10 01:49:14;;;;;;;5.35;3.63;;;18.40;97.90;;;18.40;100.00;101218.31;4972425;28;20603;-78
2022/07/10 01:51:42;;;;;;;7.65;3.70;;;18.40;97.90;;;18.35;100.00;101215.00;4989246;28;20042;-78
2022/07/10 01:54:09;;;;;;;5.13;3.15;;;18.40;98.00;;;18.39;100.00;101225.44;4989087;28;20046;-78
2022/07/10 01:56:36;;;;;;;3.97;3.50;;;18.30;98.20;;;18.42;100.00;101225.31;4989616;28;20035;-77
2022/07/10 01:59:03;;;;;;;5.85;3.55;;;18.20;98.00;;;18.33;100.00;101225.69;4988800;28;20069;-78
2022/07/10 02:01:31;;;;;;;7.20;4.20;;;18.20;98.00;;;18.23;100.00;101230.56;4990453;28;20078;-78
2022/07/10 02:06:44;;;;;;;9.55;3.92;;;18.10;98.20;;;18.10;100.00;101234.66;4970120;28;20054;-78
2022/07/10 02:09:11;;;;;;;5.13;3.45;;;18.10;98.20;;;18.16;100.00;101233.53;4951696;28;20492;-78
2022/07/10 02:11:38;;;;;;;5.38;3.72;;;18.10;98.20;;;18.14;100.00;101236.28;4976860;28;20042;-77
2022/07/10 02:14:05;;;;;;;4.47;3.25;;;18.00;98.30;;;18.21;100.00;101229.75;4972483;28;20043;-78
2022/07/10 02:16:32;;;;;;;5.15;2.85;;;18.10;98.30;;;18.20;100.00;101240.50;4988987;28;20042;-78
2022/07/10 02:18:59;;;;;;;4.55;3.00;;;18.10;98.20;;;18.20;100.00;101238.69;4972475;28;20050;-78
2022/07/10 02:21:26;;;;;;;6.32;3.30;;;18.10;98.00;;;18.20;100.00;101243.16;4988409;28;20556;-78
2022/07/10 02:23:53;;;;;;;4.97;3.13;;;18.10;98.00;;;18.16;100.00;101237.09;4988311;28;20042;-79
2022/07/10 02:26:20;;;;;;;6.80;2.75;;;18.10;98.10;;;18.09;100.00;101239.13;4988500;28;20056;-77
2022/07/10 02:28:47;;;;;;;5.60;2.80;;;18.10;98.00;;;17.94;100.00;101237.09;4988134;28;20038;-78
2022/07/10 02:31:14;;;;;;;4.82;2.90;;;18.00;98.00;;;18.02;100.00;101242.97;4971707;28;20052;-78
2022/07/10 02:33:41;;;;;;;7.00;3.65;;;18.00;98.00;;;17.93;100.00;101248.66;4988702;28;20038;-78
2022/07/10 02:36:08;;;;;;;5.97;2.47;;;17.90;97.90;;;17.88;100.00;101243.53;4988293;28;20038;-78
2022/07/10 02:38:35;;;;;;;5.05;2.60;;;17.90;97.90;;;17.98;100.00;101249.34;4991344;28;20046;-79
2022/07/10 02:41:03;;;;;;;3.88;2.80;;;17.80;97.80;;;17.91;100.00;101240.72;4973853;28;20069;-77
2022/07/10 02:43:30;;;;;;;4.68;2.80;;;17.80;97.90;;;18.00;100.00;101239.47;4990955;28;20050;-77
2022/07/10 02:45:57;;;;;;;3.90;2.20;;;17.90;97.80;;;17.99;100.00;101248.41;4978925;28;20050;-77
2022/07/10 02:48:25;;;;;;;4.07;2.40;;;17.80;97.90;;;18.01;100.00;101238.53;4977986;28;20092;-78
2022/07/10 02:50:52;;;;;;;5.63;2.88;;;17.90;97.80;;;18.04;100.00;101242.91;4988853;28;20430;-79
2022/07/10 02:53:19;;;;;;;2.78;2.20;;;17.80;97.70;;;18.08;100.00;101239.19;4988120;28;20042;-77
2022/07/10 02:55:46;;;;;;;4.97;2.72;;;17.90;97.60;;;17.93;100.00;101246.00;4988091;28;20046;-78
2022/07/10 02:58:15;;;;;;;6.05;2.83;;;17.90;97.60;;;17.95;100.00;101236.16;4972109;28;20782;-78
2022/07/10 03:00:42;;;;;;;8.20;2.40;;;17.90;97.70;;;17.94;100.00;101242.41;4987200;28;20052;-78
2022/07/10 03:03:09;;;;;;;7.13;2.50;;;17.80;97.80;;;17.94;100.00;101242.41;4988462;28;20414;-78
2022/07/10 03:05:36;;;;;;;4.22;2.95;;;17.80;97.80;;;17.90;100.00;101240.81;4987276;28;20049;-77
2022/07/10 03:08:04;;;;;;;2.67;2.20;;;17.80;97.60;;;17.93;100.00;101246.00;4987762;28;20050;-77
2022/07/10 03:10:31;;;;;;;7.15;2.70;;;17.80;97.50;;;17.90;100.00;101240.81;4988595;28;20038;-78
2022/07/10 03:12:58;;;;;;;4.40;2.40;;;17.80;97.30;;;17.90;100.00;101254.13;4987857;28;20043;-78
2022/07/10 03:15:25;;;;;;;4.88;2.65;;;17.80;97.50;;;17.84;100.00;101247.25;4971570;28;20077;-78
2022/07/10 03:17:52;;;;;;;4.30;2.38;;;17.70;97.30;;;17.85;100.00;101246.31;4987913;28;20743;-77
2022/07/10 03:20:19;;;;;;;4.15;2.40;;;18.60;97.60;;;17.72;100.00;101244.16;4970318;28;20132;-78
2022/07/10 03:22:46;;;;;;;5.05;2.40;;;17.70;97.30;;;17.77;100.00;101248.41;4987119;28;20049;-78
2022/07/10 03:25:13;;;;;;;8.18;2.20;;;17.70;97.30;;;17.64;100.00;101248.03;4955222;28;20050;-77
2022/07/10 03:27:40;;;;;;;4.90;2.50;;;17.60;97.10;;;17.66;100.00;101247.06;4988767;28;20047;-77
2022/07/10 03:30:08;;;;;;;6.65;2.40;;;17.60;97.00;;;17.69;100.00;101241.59;4986779;28;20042;-78
2022/07/10 03:32:35;;;;;;;3.70;2.35;;;17.60;96.90;;;17.71;100.00;101242.41;4986937;28;20046;-78
2022/07/10 03:35:03;;;;;;;4.38;2.08;;;17.60;96.80;;;17.71;100.00;101247.72;4971243;28;20043;-77
2022/07/10 03:37:30;;;;;;;4.85;2.22;;;17.60;96.70;;;17.65;100.00;101241.78;4988813;28;20049;-78
2022/07/10 03:39:57;;;;;;;5.75;2.58;;;17.60;96.60;;;17.53;100.00;101249.31;4988956;28;20038;-78
2022/07/10 03:42:24;;;;;;;8.10;2.50;;;17.60;96.50;;;17.57;100.00;101250.06;4987478;28;20050;-78
2022/07/10 03:44:51;;;;;;;2.72;2.17;;;17.50;96.70;;;17.58;100.00;101247.38;4987048;28;20054;-78
2022/07/10 03:47:18;;;;;;;6.90;2.50;;;17.50;96.60;;;17.57;100.00;101244.75;4989326;28;20043;-79
2022/07/10 03:49:45;;;;;;;4.32;2.00;;;17.50;96.60;;;17.52;100.00;101241.41;4986703;28;20050;-77
2022/07/10 03:52:12;;;;;;;5.22;2.53;;;17.80;96.60;;;17.47;100.00;101241.59;4989150;28;20492;-78
2022/07/10 03:54:39;;;;;;;3.67;2.03;;;17.50;96.50;;;17.49;100.00;101246.88;4986796;28;20492;-77
2022/07/10 03:59:51;;;;;;;2.75;1.85;;;17.50;96.60;;;17.46;100.00;101241.63;4987469;28;20648;-78
2022/07/10 04:02:18;;;;;;;5.00;2.08;;;17.40;96.50;;;17.49;100.00;101261.00;4985546;28;20034;-77
2022/07/10 04:04:45;;;;;;;4.75;2.30;;;17.30;96.60;;;17.51;100.00;101264.47;4986309;28;20770;-78
2022/07/10 04:07:12;;;;;;;3.45;2.00;;;17.40;96.50;;;17.49;100.00;101258.34;4987088;28;20121;-78
2022/07/10 04:09:40;;;;;;;3.95;2.10;;;17.40;96.50;;;17.36;100.00;101265.94;4987780;28;20066;-78
2022/07/10 04:12:07;;;;;;;5.60;2.40;;;17.30;96.60;;;17.40;100.00;101250.72;4986544;28;20046;-78
2022/07/10 04:14:34;;;;;;;4.85;2.10;;;17.30;96.60;;;17.25;100.00;101246.88;4986583;28;20492;-78
2022/07/10 04:17:01;;;;;;;8.07;2.00;;;17.70;96.70;;;17.37;100.00;101254.38;4988196;28;20047;-78
2022/07/10 04:19:28;;;;;;;4.13;1.80;;;17.20;96.50;;;17.22;100.00;101258.47;4987828;28;20050;-77
2022/07/10 04:21:55;;;;;;;3.08;1.77;;;17.30;96.60;;;17.22;100.00;101260.28;4986826;28;20046;-78
2022/07/10 04:24:22;;;;;;;3.60;2.33;;;17.20;96.60;;;17.25;100.00;101250.41;4986818;28;20439;-76
2022/07/10 04:26:49;;;;;;;4.72;2.03;;;17.20;96.80;;;17.21;100.00;101245.25;4970254;28;20061;-77
2022/07/10 04:29:16;;;;;;;8.10;2.47;;;17.10;96.70;;;17.12;100.00;101255.31;4986811;28;20058;-77
2022/07/10 04:31:43;;;;;;;3.03;2.05;;;17.20;96.70;;;17.17;100.00;101249.81;4972235;28;20050;-77
2022/07/10 04:34:10;;;;;;;6.13;2.40;;;17.10;96.90;;;17.21;100.00;101256.75;4990549;28;20108;-76
2022/07/10 04:36:37;;;;;;;3.35;1.90;;;17.20;97.00;;;17.30;100.00;101258.19;4974242;28;20492;-77
2022/07/10 04:39:04;;;;;;;4.60;2.05;;;17.10;97.00;;;17.28;100.00;101270.69;4990418;28;20049;-77
2022/07/10 04:41:31;;;;;;;5.50;2.47;;;17.20;97.00;;;17.26;100.00;101267.22;4990328;28;20053;-77
2022/07/10 04:43:58;;;;;;;4.88;2.20;;;16.70;96.70;;;17.33;100.00;101263.41;4990431;28;20141;-77
2022/07/10 04:46:25;;;;;;;5.80;2.30;;;17.20;97.00;;;17.31;100.00;101278.53;4973676;28;20061;-76
2022/07/10 04:48:52;;;;;;;6.07;2.13;;;17.20;96.90;;;17.29;100.00;101275.06;4990034;28;20050;-77
2022/07/10 04:51:19;;;;;;;4.78;2.13;;;17.20;96.80;;;17.35;100.00;101276.63;4989794;28;20046;-77
2022/07/10 04:53:46;;;;;;;4.88;2.33;;;17.30;96.80;;;17.41;100.00;101268.44;4989759;28;20131;-77
2022/07/10 04:56:13;;;;;;;4.40;2.05;;;17.30;96.70;;;17.38;100.00;101264.09;4989941;28;20571;-76
2022/07/10 04:58:40;;;;;;;7.35;2.20;;;17.30;96.60;;;17.40;100.00;101274.66;4992224;28;20046;-76
2022/07/10 05:01:10;;;;;;;4.45;1.98;;;17.30;96.40;;;17.41;100.00;101274.63;4975560;28;20134;-76
2022/07/10 05:03:37;;;;;;;3.67;1.83;;;17.30;96.40;;;17.42;100.00;101273.69;4991217;28;20060;-77
2022/07/10 05:06:05;;;;;;;6.97;2.20;;;17.30;96.40;;;17.43;100.00;101279.88;4991161;28;20073;-77
2022/07/10 05:08:32;;;;;;;6.03;2.50;;;17.30;96.30;;;17.43;100.00;101295.84;4991139;28;20050;-77
2022/07/10 05:10:59;;;;;;;3.85;2.03;;;17.30;96.30;;;17.44;100.00;101295.78;4990544;28;20048;-77
2022/07/10 05:13:26;;;;;;;5.70;2.10;;;17.30;96.40;;;17.50;100.00;101289.34;4990033;28;20050;-77
2022/07/10 05:15:53;;;;;;;4.85;2.45;;;17.40;96.40;;;17.53;100.00;101283.91;4993119;28;20459;-77
2022/07/10 05:18:20;;;;;;;4.93;2.40;;;17.90;96.50;;;17.51;100.00;101287.56;4992011;28;20156;-77
2022/07/10 05:20:49;;;;;;;6.45;1.83;;;17.40;96.40;;;17.53;100.00;101283.91;4989565;28;20419;-78
2022/07/10 05:23:16;;;;;;;6.93;2.85;;;17.40;96.30;;;17.51;100.00;101288.44;4990208;28;20713;-77
2022/07/10 05:25:43;;;;;;;5.95;2.50;;;17.40;96.30;;;17.51;100.00;101292.91;4990068;28;20414;-78
2022/07/10 05:28:10;;;;;;;5.78;2.80;;;17.50;96.20;;;17.51;100.00;101298.22;4976906;28;20061;-77
2022/07/10 05:30:37;;;;;;;6.18;2.75;;;17.40;96.20;;;17.47;100.00;101304.56;4990886;28;20034;-77
2022/07/10 05:33:04;;;;;;;5.03;1.95;;;17.80;96.30;;;17.57;100.00;101301.50;4989774;28;20045;-78
2022/07/10 05:35:31;;;;;;;3.92;1.88;;;17.50;96.30;;;17.61;100.00;101296.06;4991639;28;20048;-78
2022/07/10 05:37:58;;;;;;;5.70;1.85;;;17.50;96.30;;;17.69;100.00;101300.16;4990599;28;20039;-78
2022/07/10 05:40:26;;;;;;;6.03;2.47;;;17.50;96.40;;;17.67;100.00;101307.34;4991775;28;20056;-78
2022/07/10 05:42:52;;;;;;;3.58;1.92;;;17.60;96.30;;;17.70;100.00;101306.31;4990786;28;20073;-82
2022/07/10 05:45:19;;;;;;;6.90;2.90;;;17.60;96.30;;;17.70;100.00;101303.66;4993163;28;20043;-78
2022/07/10 05:47:46;;;;;;;5.97;2.47;;;18.50;96.30;;;17.66;100.00;101304.72;4994150;28;20042;-79
2022/07/10 05:50:13;;;;;;;6.57;1.90;;;18.00;96.00;;;17.66;100.00;101312.72;4992043;28;20074;-78
2022/07/10 05:52:41;;;;;;;4.68;1.98;;;17.90;95.70;;;17.68;100.00;101319.72;4989312;28;20516;-78
2022/07/10 05:55:08;;;;;;;7.07;2.30;;;17.60;95.10;;;17.63;100.00;101319.00;4992364;28;20133;-78
2022/07/10 05:57:36;;;;;;;7.80;2.10;;;17.60;94.70;;;17.81;100.00;101321.91;4993970;28;20046;-79
2022/07/10 06:00:05;;;;;;;5.05;2.00;;;17.80;94.70;;;17.82;100.00;101326.28;4993082;28;20039;-78
2022/07/10 06:02:39;;;;;;;2.88;1.50;;;17.70;94.40;;;17.86;100.00;101317.25;4980207;28;20102;-77
2022/07/10 06:05:06;;;;;;;4.13;2.35;;;17.70;94.40;;;17.85;100.00;101319.03;4972425;28;20054;-77
2022/07/10 06:07:34;;;;;;;7.47;2.50;;;17.70;94.10;;;17.78;100.00;101322.00;4988364;28;20419;-78
2022/07/10 06:10:03;;;;;;;4.55;1.95;;;17.80;94.00;;;17.85;100.00;101327.03;4964618;28;20145;-78
2022/07/10 06:12:31;;;;;;;7.45;2.10;;;17.80;94.10;;;17.84;100.00;101329.75;4996675;28;20054;-78
2022/07/10 06:14:58;;;;;;;6.03;1.90;;;17.80;93.80;;;17.78;100.00;101325.53;4985360;28;20050;-80
2022/07/10 06:17:25;;;;;;;5.18;2.00;;;17.90;93.80;;;17.74;100.00;101333.69;4997518;28;20066;-83
2022/07/10 06:19:52;;;;;;;8.85;1.85;;;17.70;93.80;;;17.61;100.00;101334.16;4993425;28;20671;-79
2022/07/10 06:22:30;;;;;;;7.03;2.28;;;17.70;93.70;;;17.61;100.00;101335.97;4978934;28;20054;-77
2022/07/10 06:25:00;;;;;;;9.70;2.22;;;17.70;93.80;;;17.62;100.00;101335.06;4973794;28;20088;-79
2022/07/10 06:27:27;;;;;;;4.27;2.23;;;17.60;93.80;;;17.56;100.00;101338.81;4972373;28;20468;-80
2022/07/10 06:29:55;;;;;;;5.55;2.25;;;17.20;94.00;;;17.61;100.00;101339.50;4953653;28;20058;-78
2022/07/10 06:32:24;;;;;;;3.08;1.83;;;17.60;93.80;;;17.56;100.00;101339.69;4956834;28;20432;-77
2022/07/10 06:34:52;;;;;;;6.82;2.00;;;17.60;93.70;;;17.58;100.00;101339.59;4970532;28;20061;-78
2022/07/10 06:37:20;;;;;;;6.85;2.08;;;17.50;93.60;;;17.57;100.00;101335.22;4974214;28;20117;-79
2022/07/10 06:39:50;;;;;;;3.45;1.85;;;17.60;93.60;;;17.57;100.00;101336.09;4977453;28;20052;-78
2022/07/10 06:42:17;;;;;;;7.13;1.50;;;17.50;93.60;;;17.66;100.00;101331.34;4974086;28;20050;-75
2022/07/10 06:44:48;;;;;;;4.70;1.90;;;17.60;93.80;;;17.68;100.00;101334.81;4988808;28;20066;-74
2022/07/10 06:50:09;;;;;;;4.18;1.80;;;17.70;93.80;;;18.19;100.00;101330.16;4988083;28;20046;-77
2022/07/10 06:52:36;;;;;;;7.10;1.90;;;18.00;93.30;;;18.30;100.00;101339.53;4993571;28;20544;-77
2022/07/10 06:55:05;;;;;;;5.43;2.10;;;18.70;93.30;;;18.24;100.00;101340.63;4988075;28;20034;-76
2022/07/10 06:57:32;;;;;;;3.58;1.65;;;18.20;93.00;;;18.37;100.00;101333.00;4989176;28;20503;-76
2022/07/10 06:59:59;;;;;;;4.60;1.80;;;18.30;92.70;;;18.30;100.00;101340.38;4982275;28;20039;-76
2022/07/10 07:02:26;;;;;;;5.63;1.85;;;18.30;92.60;;;18.34;100.00;101335.81;4988978;28;20054;-77
2022/07/10 07:04:53;;;;;;;6.80;2.17;;;18.30;92.30;;;18.32;100.00;101340.31;4988276;28;20058;-76
2022/07/10 07:07:20;;;;;;;4.40;1.63;;;18.30;92.40;;;18.22;100.00;101331.84;4988225;28;20054;-77
2022/07/10 07:09:52;;;;;;;4.43;1.65;;;18.20;92.20;;;18.31;100.00;101334.13;4988587;28;20475;-77
2022/07/10 07:12:19;;;;;;;3.47;1.50;;;18.20;92.40;;;18.31;100.00;101333.28;4975912;28;20050;-77
2022/07/10 07:14:49;;;;;;;7.47;2.08;;;18.20;92.40;;;18.38;100.00;101338.28;4952628;28;20054;-77
2022/07/10 07:17:24;;;;;;;4.78;2.08;;;18.30;92.10;;;18.31;100.00;101342.09;4967873;28;20042;-77
2022/07/10 07:25:23;;;;;;;4.22;1.75;;;18.50;91.80;;;18.79;100.00;101342.78;4973678;28;20081;-76
2022/07/10 07:27:50;;;;;;;3.15;1.75;;;18.60;91.50;;;18.66;100.00;101342.47;4988653;28;20050;-76
2022/07/10 07:30:17;;;;;;;3.90;1.73;;;18.60;91.20;;;18.87;100.00;101346.91;4987045;28;20046;-77
2022/07/10 07:32:46;;;;;;;5.57;1.33;;;18.70;91.50;;;18.93;100.00;101347.50;4987834;28;20053;-76
2022/07/10 07:35:14;;;;;;;5.80;1.80;;;18.70;91.20;;;19.06;99.72;101349.66;4988480;28;20532;-76
2022/07/10 07:37:47;;;;;;;3.38;1.30;;;18.80;90.80;;;19.27;97.00;101346.03;4989746;28;20129;-77
2022/07/10 07:40:22;;;;;;;3.60;1.45;;;19.00;90.30;;;19.26;89.26;101348.78;4955226;28;20052;-77
2022/07/10 07:42:51;;;;;;;4.90;1.55;;;19.20;89.00;;;19.15;91.59;101345.72;4971672;28;20046;-75
2022/07/10 07:45:18;;;;;;;2.33;1.10;;;19.10;88.90;;;19.29;87.81;101343.31;4988237;28;20137;-75
2022/07/10 07:47:56;;;;;;;4.05;1.67;;;19.20;88.50;;;19.27;89.73;101346.03;4986950;28;20073;-75
2022/07/10 07:50:29;;;;;;;2.95;1.50;;;19.20;88.70;;;19.31;88.06;101346.78;4986586;28;20053;-75
2022/07/10 07:52:56;;;;;;;4.78;1.88;;;19.20;88.40;;;19.32;83.40;101347.66;4986949;28;20046;-75
2022/07/10 07:55:23;;;;;;;2.10;1.40;;;19.20;87.30;;;19.33;83.69;101350.22;4987426;28;20046;-75
2022/07/10 07:57:55;;;;;;;4.22;1.55;;;19.20;87.20;;;19.50;88.95;101349.47;4969493;28;20046;-75
2022/07/10 08:00:25;;;;;;;4.53;1.40;;;19.30;88.40;;;19.45;83.87;101342.59;4979255;28;20510;-73
2022/07/10 08:02:54;;;;;;;5.90;1.58;;;19.30;87.10;;;19.46;83.53;101339.88;4986714;28;20053;-73
2022/07/10 08:05:25;;;;;;;6.57;1.73;;;19.30;87.00;;;19.40;85.27;101341.03;4989012;28;20057;-75
2022/07/10 08:08:01;;;;;;;2.25;1.17;;;19.30;87.10;;;19.40;85.58;101342.81;4993169;28;20118;-74
2022/07/10 08:10:28;;;;;;;2.58;1.27;;;19.30;87.20;;;19.30;85.30;101339.69;4993229;28;20062;-74
2022/07/10 08:12:55;;;;;;;3.58;1.30;;;19.30;87.00;;;19.41;83.84;101333.88;4976346;28;20046;-74
2022/07/10 08:15:23;;;;;;;5.53;1.77;;;19.30;86.90;;;19.41;81.81;101333.88;4992703;28;20046;-74
2022/07/10 08:17:55;;;;;;;4.47;1.30;;;19.30;86.30;;;19.44;77.82;101330.22;4992972;28;20085;-75
2022/07/10 08:20:25;;;;;;;2.38;1.08;;;19.30;85.40;;;19.47;80.40;101328.28;4993173;28;20113;-75
2022/07/10 08:22:53;;;;;;;5.18;1.55;;;19.30;85.90;;;19.45;76.54;101326.59;4991326;28;20129;-76
2022/07/10 08:25:29;;;;;;;3.45;1.35;;;19.30;85.00;;;19.51;75.58;101331.63;4977799;28;20057;-75
2022/07/10 08:28:05;;;;;;;4.03;1.63;;;19.30;84.80;;;19.67;73.04;101329.13;4977779;28;20531;-75
2022/07/10 08:30:33;;;;;;;5.45;1.33;;;19.40;84.50;;;19.71;73.55;101320.03;4993078;28;20496;-75
2022/07/10 08:33:00;;;;;;;4.38;1.10;;;19.50;84.60;;;19.86;78.71;101325.59;4993261;28;20424;-74
2022/07/10 08:35:27;;;;;;;4.13;1.83;;;19.50;85.70;;;19.92;72.56;101333.34;4994216;28;20470;-74
2022/07/10 08:37:54;;;;;;;4.28;1.30;;;19.70;84.20;;;19.75;66.77;101335.00;4993009;28;20084;-72
2022/07/10 08:40:22;;;;;;;3.45;1.60;;;19.60;82.30;;;19.50;66.51;101332.56;4994001;28;20523;-73
2022/07/10 08:42:50;;;;;;;8.00;1.48;;;19.60;81.70;;;19.54;66.10;101337.72;4992778;28;20138;-74
2022/07/10 08:45:17;;;;;;;5.50;1.30;;;19.50;81.70;;;19.68;67.72;101333.53;4994103;28;20117;-75
2022/07/10 08:47:44;;;;;;;6.63;1.38;;;19.50;82.40;;;19.63;65.44;101331.06;4993250;28;20064;-74
2022/07/10 08:50:22;;;;;;;3.75;1.20;;;19.50;81.50;;;19.59;62.28;101334.84;4992412;28;20046;-76
2022/07/10 08:53:12;;;;;;;3.92;1.35;;;19.50;80.40;;;19.61;62.83;101335.63;4993096;28;20070;-73
2022/07/10 08:55:39;;;;;;;2.38;1.10;;;19.50;80.30;;;19.55;62.90;101322.56;4993521;28;20049;-75
2022/07/10 08:58:09;;;;;;;2.13;1.08;;;19.50;80.50;;;19.59;61.27;101333.94;4990495;28;20484;-75
2022/07/10 09:00:36;;;;;;;1.33;0.98;;;19.40;79.70;;;19.56;63.75;101335.84;4993447;28;20044;-76
2022/07/10 09:03:04;;;;;;;2.75;1.13;;;19.50;80.50;;;19.59;61.58;101326.81;4984460;28;20121;-73
2022/07/10 09:05:31;;;;;;;2.45;1.33;;;19.50;80.00;;;19.65;62.88;101331.84;4979219;28;20054;-74
2022/07/10 09:07:58;;;;;;;4.22;1.00;;;19.50;80.20;;;19.69;60.47;101335.25;4957488;28;20046;-74
2022/07/10 09:10:27;;;;;;;3.00;1.38;;;19.50;79.40;;;19.86;58.82;101336.25;4958063;28;20046;-76
2022/07/10 09:13:01;;;;;;;4.40;1.42;;;19.60;79.20;;;19.78;59.11;101325.94;4973586;28;20077;-77
2022/07/10 09:15:32;;;;;;;3.92;1.38;;;19.60;78.90;;;19.86;57.48;101331.81;4973439;28;20050;-76
2022/07/10 09:18:02;;;;;;;5.13;1.30;;;19.60;78.40;;;19.72;54.92;101316.41;4970170;28;20043;-77
2022/07/10 09:20:33;;;;;;;3.65;0.90;;;19.70;77.00;;;19.82;55.65;101320.41;4970134;28;20274;-77
2022/07/10 09:23:18;;;;;;;3.50;1.05;;;19.70;77.30;;;19.95;56.30;101317.16;4976232;28;20050;-77
2022/07/10 09:25:53;;;;;;;2.03;1.00;;;19.70;77.70;;;19.96;53.34;101316.22;4992107;28;20052;-77
2022/07/10 09:28:22;;;;;;;2.30;0.93;;;19.80;76.20;;;20.07;53.90;101324.59;4974501;28;20093;-76
2022/07/10 09:30:50;;;;;;;1.98;1.05;;;19.80;76.60;;;20.01;51.61;101332.88;4991445;28;20077;-77
2022/07/10 09:33:30;;;;;;;2.83;0.90;;;19.90;75.20;;;19.97;52.10;101333.97;4991325;28;20048;-77
2022/07/10 09:36:10;;;;;;;1.23;1.00;;;19.80;75.20;;;19.97;50.62;101329.50;4991996;28;20562;-77
2022/07/10 09:38:44;;;;;;;4.25;1.25;;;19.80;74.50;;;20.08;50.81;101326.31;4981855;28;20070;-78
2022/07/10 09:41:19;;;;;;;4.13;1.00;;;19.80;74.70;;;20.11;51.07;101330.63;4989953;28;20512;-75
2022/07/10 09:43:55;;;;;;;3.10;1.20;;;19.90;74.40;;;20.16;51.31;101333.97;4989352;28;20044;-76
2022/07/10 09:46:42;;;;;;;3.78;1.30;;;19.90;74.70;;;20.07;49.92;101332.59;4973243;28;20133;-76
2022/07/10 09:49:14;;;;;;;1.63;1.05;;;19.90;73.50;;;20.10;49.53;101327.09;4990021;28;20038;-77
2022/07/10 09:51:46;;;;;;;3.08;1.30;;;19.90;73.50;;;20.09;50.86;101327.16;4989089;28;20038;-76
2022/07/10 09:54:18;;;;;;;4.03;1.40;;;19.90;73.80;;;20.06;50.49;101324.66;4973113;28;20140;-77
2022/07/10 09:56:51;;;;;;;3.33;1.10;;;19.90;73.50;;;19.99;49.39;101324.09;4990515;28;20046;-77
2022/07/10 09:59:20;;;;;;;3.92;1.33;;;19.90;72.70;;;20.06;50.29;101320.19;4989249;28;20133;-78
2022/07/10 10:01:52;;;;;;;5.83;1.67;;;19.80;73.20;;;20.23;49.57;101330.03;4987902;28;20051;-77
2022/07/10 10:04:25;;;;;;;1.60;0.93;;;19.90;73.00;;;20.39;49.74;101330.16;4972063;28;20105;-76
2022/07/10 10:06:56;;;;;;;3.50;1.08;;;20.00;73.40;;;20.43;50.08;101330.84;4989556;28;20046;-78
2022/07/10 10:09:38;;;;;;;2.90;1.20;;;20.20;73.60;;;20.44;50.78;101323.69;4991982;28;20053;-77
2022/07/10 10:12:17;;;;;;;3.88;1.10;;;20.20;73.70;;;20.48;50.85;101331.47;4979939;28;20121;-78
2022/07/10 10:14:44;;;;;;;2.78;1.25;;;20.20;73.60;;;20.47;49.42;101336.91;4992989;28;20050;-78
2022/07/10 10:17:12;;;;;;;7.18;2.08;;;20.30;72.50;;;20.43;48.33;101325.50;4996645;28;20038;-78
2022/07/10 10:22:28;;;;;;;3.67;1.50;;;20.30;71.60;;;20.61;47.97;101304.97;4990355;28;20050;-78
2022/07/10 10:24:56;;;;;;;3.30;1.70;;;20.40;71.50;;;20.72;48.58;101314.25;4958174;28;20050;-77
2022/07/10 10:27:24;;;;;;;3.30;1.15;;;20.50;71.90;;;20.78;47.90;101313.94;4988139;28;20065;-77
2022/07/10 10:29:52;;;;;;;2.40;0.95;;;20.50;71.50;;;20.84;48.21;101302.97;4988808;28;20058;-77